Time;durP1;ratioP1;P1;durP2;ratioP2;P2;SDS_P1;SDS_P2;PMS_P1;PMS_P2;Temp;Humidity;BMP_temperature;BMP_pressure;BME280_temperature;BME280_humidity;BME280_pressure;Samples;Min_cycle;Max_cycle;Signal;HPM_P1;HPM_P2
2023/08/09 00:02:17;;;;;;;0.95;0.50;;;;;;;24.53;34.78;98885.84;4991609;28;20035;-73
2023/08/09 00:04:42;;;;;;;0.90;0.50;;;;;;;24.58;34.90;98890.63;4975773;28;20034;-73
2023/08/09 00:07:08;;;;;;;0.98;0.50;;;;;;;24.59;34.71;98898.41;4975411;28;20039;-73
2023/08/09 00:09:33;;;;;;;2.25;0.50;;;;;;;24.53;34.80;98883.19;4975536;28;20068;-73
2023/08/09 00:11:59;;;;;;;2.70;0.60;;;;;;;24.56;34.94;98896.13;4959377;28;20041;-73
2023/08/09 00:14:24;;;;;;;0.60;0.40;;;;;;;24.55;34.84;98887.28;4959071;28;20030;-73
2023/08/09 00:16:50;;;;;;;1.75;0.50;;;;;;;24.61;34.92;98908.88;4974635;28;20173;-73
2023/08/09 00:19:15;;;;;;;2.47;0.40;;;;;;;24.61;35.04;98904.38;4992932;28;20030;-73
2023/08/09 00:21:41;;;;;;;3.45;0.50;;;;;;;24.64;35.06;98890.63;4991602;28;20034;-73
2023/08/09 00:24:06;;;;;;;1.35;0.50;;;;;;;24.63;34.95;98894.28;4959442;28;20034;-73
2023/08/09 00:26:32;;;;;;;1.38;0.50;;;;;;;24.63;35.09;98890.81;4975230;28;20048;-73
2023/08/09 00:28:57;;;;;;;0.70;0.47;;;;;;;24.64;35.15;98898.63;4992731;28;20046;-73
2023/08/09 00:31:23;;;;;;;1.85;0.73;;;;;;;24.58;35.33;98891.44;4975094;28;20045;-73
2023/08/09 00:33:48;;;;;;;1.15;0.60;;;;;;;24.60;35.25;98897.38;4975297;28;20117;-73
2023/08/09 00:36:15;;;;;;;0.40;0.38;;;;;;;24.57;35.38;98895.09;4992350;28;20049;-73
2023/08/09 00:38:41;;;;;;;0.90;0.60;;;;;;;24.54;35.40;98900.81;4991652;28;20117;-73
2023/08/09 00:41:07;;;;;;;0.75;0.50;;;;;;;24.53;35.34;98899.19;4990483;28;20042;-73
2023/08/09 00:43:32;;;;;;;1.40;0.60;;;;;;;24.52;35.34;98897.53;4991758;28;20100;-73
2023/08/09 00:45:58;;;;;;;0.50;0.45;;;;;;;24.52;35.60;98897.53;4975307;28;20026;-73
2023/08/09 00:48:24;;;;;;;1.63;0.52;;;;;;;24.49;35.40;98896.09;4990982;28;20433;-73
2023/08/09 00:50:49;;;;;;;0.65;0.50;;;;;;;24.44;35.52;98893.22;4975308;28;20038;-73
2023/08/09 00:53:15;;;;;;;0.52;0.40;;;;;;;24.39;35.60;98890.34;4974473;28;20496;-73
2023/08/09 00:55:41;;;;;;;1.23;0.50;;;;;;;24.41;35.74;98898.16;4991581;28;20034;-74
2023/08/09 00:58:06;;;;;;;1.02;0.45;;;;;;;24.35;35.69;98899.78;4991156;28;20069;-73
2023/08/09 01:00:32;;;;;;;1.33;0.43;;;;;;;24.35;35.45;98899.78;4991383;28;20123;-73
2023/08/09 01:02:58;;;;;;;1.00;0.52;;;;;;;24.34;35.68;98898.97;4975067;28;20026;-73
2023/08/09 01:05:26;;;;;;;1.30;0.60;;;;;;;24.32;35.85;98895.69;4975276;28;20441;-73
2023/08/09 01:08:01;;;;;;;0.75;0.52;;;;;;;24.29;36.08;98895.25;4958940;28;20038;-73
2023/08/09 01:10:31;;;;;;;1.23;0.50;;;;;;;24.30;36.31;98902.22;4959125;28;20157;-72
2023/08/09 01:13:01;;;;;;;0.90;0.50;;;;;;;24.27;36.20;98897.28;4959538;28;20030;-72
2023/08/09 01:15:27;;;;;;;1.70;0.45;;;;;;;24.24;36.26;98895.03;4975306;28;20037;-73
2023/08/09 01:17:52;;;;;;;1.38;0.52;;;;;;;24.21;36.22;98904.28;4975717;28;20066;-73
2023/08/09 01:20:18;;;;;;;0.60;0.40;;;;;;;24.21;36.34;98904.28;4958544;28;20074;-72
2023/08/09 01:22:54;;;;;;;0.85;0.50;;;;;;;24.15;36.31;98892.56;4959124;28;20037;-72
2023/08/09 01:25:19;;;;;;;3.10;0.65;;;;;;;24.14;36.39;98900.75;4991350;28;20037;-73
2023/08/09 01:27:45;;;;;;;2.20;0.50;;;;;;;24.14;36.47;98909.56;4960513;28;20038;-73
2023/08/09 01:30:11;;;;;;;2.50;0.65;;;;;;;24.14;36.59;98908.75;4996088;28;20042;-73
2023/08/09 01:32:39;;;;;;;1.50;0.60;;;;;;;24.14;36.50;98906.91;4994967;28;20054;-73
2023/08/09 01:35:05;;;;;;;1.95;0.60;;;;;;;24.12;36.50;98908.97;4996001;28;20137;-73
2023/08/09 01:37:34;;;;;;;3.67;1.10;;;;;;;24.10;36.55;98908.34;4978706;28;20133;-73
2023/08/09 01:40:07;;;;;;;2.20;0.63;;;;;;;24.11;36.77;98901.16;4978799;28;20405;-73
2023/08/09 01:42:33;;;;;;;1.25;0.57;;;;;;;24.10;36.87;98900.34;4979804;28;20029;-72
2023/08/09 01:44:58;;;;;;;1.25;0.70;;;;;;;24.09;36.72;98900.53;4978380;28;20038;-72
2023/08/09 01:47:24;;;;;;;1.00;0.60;;;;;;;24.02;36.88;98901.34;4978313;28;20038;-71
2023/08/09 01:49:51;;;;;;;0.73;0.47;;;;;;;24.07;36.70;98906.06;4979091;28;20042;-71
2023/08/09 01:52:17;;;;;;;2.22;0.60;;;;;;;24.02;36.80;98911.16;4978774;28;20113;-71
2023/08/09 01:54:42;;;;;;;2.08;0.73;;;;;;;24.03;36.96;98916.28;4978720;28;20039;-71
2023/08/09 01:57:08;;;;;;;1.13;0.60;;;;;;;24.02;36.97;98913.84;4994437;28;20025;-71
2023/08/09 01:59:33;;;;;;;1.67;0.70;;;;;;;24.00;36.86;98916.72;4978134;28;20046;-71
2023/08/09 02:01:59;;;;;;;1.05;0.50;;;;;;;23.98;36.99;98923.28;4993001;28;20033;-71
2023/08/09 02:04:24;;;;;;;1.10;0.60;;;;;;;23.94;36.86;98925.53;4977539;28;20402;-71
2023/08/09 02:06:50;;;;;;;0.65;0.50;;;;;;;23.93;37.09;98920.38;4994191;28;20086;-71
2023/08/09 02:09:15;;;;;;;1.27;0.50;;;;;;;23.91;37.07;98928.59;4978207;28;20049;-72
2023/08/09 02:11:41;;;;;;;1.30;0.60;;;;;;;23.92;37.19;98938.19;4961483;28;20417;-71
2023/08/09 02:14:07;;;;;;;2.42;0.60;;;;;;;23.88;37.40;98938.78;4978064;28;20088;-71
2023/08/09 02:16:33;;;;;;;1.00;0.70;;;;;;;23.89;37.21;98940.44;4978461;28;20030;-71
2023/08/09 02:18:58;;;;;;;1.70;0.70;;;;;;;23.87;37.32;98935.31;4961799;28;20492;-71
2023/08/09 02:21:25;;;;;;;1.15;0.60;;;;;;;23.86;37.44;98936.34;4994358;28;20061;-71
2023/08/09 02:23:50;;;;;;;0.85;0.68;;;;;;;23.80;37.48;98929.94;4994085;28;20042;-71
2023/08/09 02:26:18;;;;;;;0.60;0.50;;;;;;;23.80;37.58;98932.59;4977724;28;20035;-71
2023/08/09 02:28:44;;;;;;;0.80;0.60;;;;;;;23.76;37.54;98928.69;4976399;28;20059;-72
2023/08/09 02:31:10;;;;;;;2.55;0.50;;;;;;;23.84;38.01;98936.53;4994218;28;20516;-71
2023/08/09 02:33:36;;;;;;;1.30;0.70;;;;;;;24.02;37.63;98944.00;4992737;28;20043;-71
2023/08/09 02:36:04;;;;;;;1.35;0.70;;;;;;;24.13;37.35;98933.78;4976596;28;20054;-71
2023/08/09 02:38:31;;;;;;;4.45;0.75;;;;;;;24.28;37.09;98939.78;4991750;28;20101;-71
2023/08/09 02:40:57;;;;;;;1.38;0.70;;;;;;;24.39;36.95;98941.03;4992751;28;20038;-71
2023/08/09 02:43:25;;;;;;;13.32;1.10;;;;;;;24.44;36.63;98938.56;4992786;28;20039;-71
2023/08/09 02:45:52;;;;;;;23.42;1.27;;;;;;;24.50;36.57;98942.28;4993025;28;20036;-72
2023/08/09 02:48:17;;;;;;;12.73;0.82;;;;;;;24.55;36.25;98942.50;4993111;28;20065;-71
2023/08/09 02:50:43;;;;;;;3.08;0.70;;;;;;;24.62;36.42;98950.53;4992450;28;20061;-72
2023/08/09 02:53:09;;;;;;;3.60;0.70;;;;;;;24.66;36.23;98957.94;4992911;28;20528;-71
2023/08/09 02:55:35;;;;;;;2.78;0.80;;;;;;;24.71;36.19;98958.16;4975822;28;20072;-71
2023/08/09 02:58:00;;;;;;;2.53;0.70;;;;;;;24.76;36.07;98949.53;4976606;28;20022;-71
2023/08/09 03:00:26;;;;;;;0.88;0.70;;;;;;;24.84;35.87;98962.72;4992553;28;20030;-71
2023/08/09 03:02:52;;;;;;;0.88;0.52;;;;;;;24.88;35.89;98963.13;4992500;28;20511;-69
2023/08/09 03:05:17;;;;;;;2.20;0.65;;;;;;;24.91;36.20;98960.03;4992287;28;20034;-69
2023/08/09 03:07:43;;;;;;;1.98;0.90;;;;;;;24.93;36.39;98963.31;4993129;28;20019;-68
2023/08/09 03:10:09;;;;;;;3.28;0.75;;;;;;;24.95;36.38;98966.59;4993014;28;20034;-69
2023/08/09 03:12:35;;;;;;;4.05;0.90;;;;;;;24.91;36.35;98968.03;4976740;28;20023;-73
2023/08/09 03:15:01;;;;;;;4.32;0.70;;;;;;;24.91;36.82;98973.38;4976853;28;20050;-75
2023/08/09 03:17:26;;;;;;;2.90;0.80;;;;;;;24.92;36.90;98975.84;5009255;28;20033;-72
2023/08/09 03:19:52;;;;;;;1.38;0.75;;;;;;;24.94;36.53;98981.00;4993281;28;20030;-72
2023/08/09 03:22:17;;;;;;;2.63;0.75;;;;;;;24.96;37.06;98981.59;4992966;28;20089;-71
2023/08/09 03:24:43;;;;;;;3.70;0.80;;;;;;;25.02;36.33;98983.44;5009168;28;20474;-71
2023/08/09 03:27:08;;;;;;;49.20;1.70;;;;;;;25.07;36.36;98983.66;4993885;28;20036;-72
2023/08/09 03:29:34;;;;;;;37.13;1.40;;;;;;;25.12;36.14;98976.88;4992530;28;20038;-80
2023/08/09 03:31:59;;;;;;;5.93;0.88;;;;;;;25.15;36.03;98987.97;4992714;28;20564;-81
2023/08/09 03:34:25;;;;;;;5.95;0.90;;;;;;;25.16;35.50;98981.63;4987863;28;20053;-80
2023/08/09 03:36:51;;;;;;;3.90;0.93;;;;;;;25.23;35.48;98992.28;4968635;28;20022;-81
2023/08/09 03:39:16;;;;;;;3.25;0.73;;;;;;;25.23;35.12;98984.28;5008679;28;20030;-81
2023/08/09 03:41:43;;;;;;;2.78;0.70;;;;;;;25.29;35.26;98988.81;4977072;28;20034;-81
2023/08/09 03:44:08;;;;;;;1.98;0.60;;;;;;;25.73;34.45;98983.81;4994211;28;20069;-81
2023/08/09 03:46:34;;;;;;;2.25;0.60;;;;;;;26.57;33.10;98984.75;4993676;28;20085;-82
2023/08/09 03:49:00;;;;;;;0.90;0.70;;;;;;;27.26;31.58;98995.59;4976431;28;20030;-82
2023/08/09 03:51:26;;;;;;;4.72;0.70;;;;;;;27.93;30.51;99000.34;4992096;28;20041;-78
2023/08/09 03:53:51;;;;;;;1.45;0.60;;;;;;;28.60;30.04;99002.22;4982233;28;20030;-78
2023/08/09 03:56:17;;;;;;;0.68;0.55;;;;;;;29.25;28.79;99009.53;4976142;28;20034;-81
2023/08/09 03:58:42;;;;;;;7.22;0.65;;;;;;;30.03;27.66;99001.31;4975961;28;20026;-81
2023/08/09 04:01:08;;;;;;;3.03;0.75;;;;;;;30.83;26.74;99021.16;4959984;28;20053;-79
2023/08/09 04:03:33;;;;;;;3.63;0.60;;;;;;;31.48;25.93;99010.91;4959852;28;20103;-80
2023/08/09 04:05:59;;;;;;;1.88;0.80;;;;;;;32.09;25.10;99013.69;4976078;28;20034;-80
2023/08/09 04:08:26;;;;;;;6.10;0.65;;;;;;;32.70;24.09;99008.13;4959354;28;20461;-81
2023/08/09 04:10:54;;;;;;;3.55;0.63;;;;;;;33.25;23.36;99018.91;4976317;28;20034;-81
2023/08/09 04:13:19;;;;;;;;;;;;;;;33.75;22.94;99027.63;4977133;28;20030;-81
2023/08/09 04:15:45;;;;;;;5.57;0.77;;;;;;;34.25;22.10;99020.84;4992367;28;19916;-80
2023/08/09 04:18:10;;;;;;;5.82;1.00;;;;;;;34.74;21.33;99019.59;4991975;28;20088;-81
2023/08/09 04:20:37;;;;;;;1.60;0.68;;;;;;;35.19;21.17;99019.88;4992075;28;20030;-81
2023/08/09 04:23:03;;;;;;;1.85;0.55;;;;;;;35.64;20.78;99029.09;4991934;28;20030;-80
2023/08/09 04:25:28;;;;;;;6.45;0.80;;;;;;;36.07;20.06;99032.22;4991958;28;20030;-81
2023/08/09 04:27:55;;;;;;;6.38;0.68;;;;;;;36.52;19.67;99032.31;4993068;28;20030;-80
2023/08/09 04:30:22;;;;;;;4.05;0.75;;;;;;;36.72;19.50;99036.78;4992460;28;20065;-79
2023/08/09 04:32:48;;;;;;;2.25;0.50;;;;;;;36.82;19.03;99042.19;4992165;28;20456;-81
2023/08/09 04:35:13;;;;;;;8.93;0.70;;;;;;;36.98;18.89;99040.19;4991596;28;20088;-77
2023/08/09 04:37:40;;;;;;;5.53;0.55;;;;;;;37.29;18.80;99038.03;4991698;28;20081;-81
2023/08/09 04:40:10;;;;;;;3.43;0.70;;;;;;;37.54;18.08;99036.16;4991202;28;20046;-78
2023/08/09 04:42:40;;;;;;;2.70;0.50;;;;;;;37.84;17.94;99034.22;4960516;28;20038;-77
2023/08/09 04:45:08;;;;;;;6.32;0.90;;;;;;;38.13;18.24;99031.41;4975380;28;20125;-79
2023/08/09 04:47:34;;;;;;;1.75;0.60;;;;;;;38.62;17.36;99036.78;4958831;28;20038;-80
2023/08/09 04:50:00;;;;;;;3.75;0.52;;;;;;;38.96;17.10;99036.53;4975252;28;20049;-78
2023/08/09 04:52:25;;;;;;;1.02;0.30;;;;;;;39.35;16.67;99040.81;4992779;28;20044;-79
2023/08/09 04:54:51;;;;;;;3.85;0.60;;;;;;;39.86;16.53;99041.00;4975753;28;20030;-77
2023/08/09 04:57:16;;;;;;;4.38;0.40;;;;;;;40.39;15.49;99045.09;4992509;28;20062;-78
2023/08/09 04:59:42;;;;;;;4.97;0.45;;;;;;;40.85;15.25;99042.16;4992531;28;20065;-77
2023/08/09 05:02:07;;;;;;;12.65;0.60;;;;;;;41.32;14.49;99035.53;4977073;28;20034;-81
2023/08/09 05:04:33;;;;;;;4.57;0.55;;;;;;;41.73;14.29;99031.72;4995539;28;20026;-81
2023/08/09 05:07:00;;;;;;;6.00;0.73;;;;;;;41.99;14.21;99037.28;4962390;28;20041;-82
2023/08/09 05:09:27;;;;;;;4.78;0.60;;;;;;;42.34;13.71;99039.31;4995559;28;20579;-81
2023/08/09 05:11:52;;;;;;;;;;;;;;;42.57;13.63;99039.97;4980066;28;20157;-81
2023/08/09 05:14:18;;;;;;;2.93;0.70;;;;;;;42.99;13.47;99043.84;4995180;28;20037;-81
2023/08/09 05:16:43;;;;;;;2.97;0.67;;;;;;;43.42;13.15;99042.13;4963108;28;20034;-81
2023/08/09 05:19:16;;;;;;;3.17;0.57;;;;;;;43.67;13.19;99042.38;4978685;28;20053;-82
2023/08/09 05:21:42;;;;;;;6.43;0.70;;;;;;;43.96;12.96;99052.56;4979265;28;20046;-80
2023/08/09 05:24:08;;;;;;;3.50;0.50;;;;;;;44.10;12.56;99052.34;4962863;28;20185;-79
2023/08/09 05:26:33;;;;;;;2.20;0.47;;;;;;;44.41;12.54;99052.00;4962819;28;20401;-80
2023/08/09 05:28:58;;;;;;;1.63;0.50;;;;;;;44.39;12.25;99057.03;4963615;28;20022;-81
2023/08/09 05:31:24;;;;;;;2.20;0.40;;;;;;;44.62;12.28;99060.25;4978832;28;20132;-81
2023/08/09 05:33:50;;;;;;;4.83;0.50;;;;;;;44.50;12.61;99056.63;4978965;28;20034;-82
2023/08/09 05:36:15;;;;;;;4.90;0.50;;;;;;;44.66;12.25;99067.84;4962524;28;20093;-80
2023/08/09 05:38:41;;;;;;;1.20;0.40;;;;;;;44.76;12.29;99068.25;4995390;28;20065;-80
2023/08/09 05:41:06;;;;;;;2.53;0.40;;;;;;;44.73;12.66;99071.66;4978770;28;20474;-81
2023/08/09 05:43:32;;;;;;;2.80;0.40;;;;;;;45.03;12.23;99068.03;4962544;28;20030;-81
2023/08/09 05:45:57;;;;;;;1.20;0.50;;;;;;;45.15;11.83;99060.59;4978528;28;20038;-79
2023/08/09 05:48:23;;;;;;;3.20;0.40;;;;;;;45.22;11.76;99059.25;4978587;28;20465;-80
2023/08/09 05:50:49;;;;;;;1.60;0.50;;;;;;;45.16;11.56;99064.94;4978942;28;20030;-82
2023/08/09 05:53:14;;;;;;;0.77;0.40;;;;;;;45.26;11.82;99066.47;4962261;28;20069;-80
2023/08/09 05:55:40;;;;;;;1.07;0.30;;;;;;;45.33;11.43;99061.19;4994466;28;20077;-80
2023/08/09 05:58:06;;;;;;;2.23;0.50;;;;;;;45.28;11.46;99066.16;4962652;28;20077;-80
2023/08/09 06:00:31;;;;;;;1.70;0.47;;;;;;;45.18;11.68;99056.34;4978459;28;20291;-81
2023/08/09 06:02:57;;;;;;;3.17;0.30;;;;;;;45.16;11.91;99056.69;4978347;28;20030;-80
2023/08/09 06:05:25;;;;;;;1.20;0.30;;;;;;;45.13;12.08;99062.88;4994084;28;20026;-81
2023/08/09 06:07:54;;;;;;;2.35;0.50;;;;;;;45.05;12.24;99061.03;4994436;28;20034;-80
2023/08/09 06:10:20;;;;;;;0.55;0.40;;;;;;;45.20;11.67;99064.25;4978524;28;20030;-81
2023/08/09 06:12:45;;;;;;;5.28;0.60;;;;;;;45.12;12.12;99060.44;4978063;28;20046;-80
2023/08/09 06:15:11;;;;;;;3.47;0.90;;;;;;;45.11;11.67;99059.66;4978369;28;20429;-81
2023/08/09 06:17:37;;;;;;;3.47;0.80;;;;;;;45.23;11.67;99063.59;4994082;28;20034;-81
2023/08/09 06:20:04;;;;;;;3.30;0.70;;;;;;;45.20;11.78;99065.09;4977933;28;20506;-82
2023/08/09 06:22:30;;;;;;;3.35;0.68;;;;;;;45.21;12.05;99066.69;4978693;28;20644;-80
2023/08/09 06:24:56;;;;;;;2.93;0.50;;;;;;;45.15;11.55;99070.78;4994085;28;20042;-82
2023/08/09 06:27:21;;;;;;;2.70;0.50;;;;;;;45.06;11.75;99068.16;4977809;28;20294;-81
2023/08/09 06:29:47;;;;;;;3.63;0.40;;;;;;;45.00;12.06;99066.75;4962029;28;20069;-82
2023/08/09 06:32:12;;;;;;;1.40;0.50;;;;;;;44.86;11.52;99063.47;4993604;28;20120;-80
2023/08/09 08:37:59;;;;;;;0.68;0.20;;;;;;;40.96;12.98;98995.38;5041677;28;20063;-80
2023/08/09 08:40:25;;;;;;;1.38;0.30;;;;;;;40.86;12.98;98985.50;5013883;28;20042;-79
2023/08/09 08:42:51;;;;;;;0.30;0.20;;;;;;;40.74;13.11;98980.56;5032430;28;20439;-80
2023/08/09 08:45:17;;;;;;;0.82;0.40;;;;;;;40.37;13.52;98982.50;5014978;28;20025;-79
2023/08/09 08:47:43;;;;;;;2.65;0.50;;;;;;;40.26;13.25;98981.13;5031287;28;20037;-79
2023/08/09 08:50:09;;;;;;;0.65;0.35;;;;;;;40.24;13.27;98984.16;5027888;28;20436;-80
2023/08/09 08:52:38;;;;;;;1.65;0.40;;;;;;;40.09;13.42;98971.66;5014924;28;20034;-79
2023/08/09 08:55:11;;;;;;;1.27;0.30;;;;;;;40.06;13.42;98974.19;5014568;28;20033;-80
2023/08/09 08:57:37;;;;;;;0.80;0.40;;;;;;;39.96;13.65;98967.81;5027754;28;20052;-81
2023/08/09 09:00:08;;;;;;;1.43;0.30;;;;;;;39.96;13.62;98965.06;4994020;28;20408;-80
2023/08/09 09:02:37;;;;;;;0.98;0.40;;;;;;;39.93;13.71;98959.41;5015735;28;20026;-80
2023/08/09 09:05:03;;;;;;;2.15;0.32;;;;;;;39.85;13.81;98971.84;5014076;28;20061;-80
2023/08/09 09:07:29;;;;;;;3.35;0.50;;;;;;;39.77;13.68;98970.69;5014634;28;20042;-79
2023/08/09 09:10:05;;;;;;;1.13;0.30;;;;;;;39.63;14.02;98964.38;4998229;28;20511;-81
2023/08/09 09:12:36;;;;;;;1.92;0.57;;;;;;;39.57;14.27;98962.91;5014497;28;20041;-80
2023/08/09 09:15:04;;;;;;;0.70;0.30;;;;;;;39.40;14.29;98953.34;5014718;28;20048;-80
2023/08/09 09:17:30;;;;;;;1.05;0.30;;;;;;;39.25;14.19;98950.91;5014130;28;20041;-80
2023/08/09 09:19:55;;;;;;;3.03;0.40;;;;;;;39.08;14.23;98948.78;5014542;28;20389;-79
2023/08/09 09:22:28;;;;;;;2.30;0.30;;;;;;;38.94;14.53;98934.28;4997542;28;20079;-81
2023/08/09 09:25:04;;;;;;;1.52;0.50;;;;;;;38.86;15.15;98935.78;5014154;28;20054;-80
2023/08/09 09:27:31;;;;;;;1.77;0.33;;;;;;;38.85;15.06;98931.41;4999153;28;20144;-80
2023/08/09 09:30:09;;;;;;;0.55;0.30;;;;;;;38.81;15.13;98922.19;4998555;28;20432;-79
2023/08/09 09:32:35;;;;;;;1.05;0.40;;;;;;;38.80;15.33;98918.66;5031765;28;20473;-80
2023/08/09 09:35:01;;;;;;;1.17;0.40;;;;;;;38.77;15.42;98913.81;4998277;28;20038;-81
2023/08/09 09:37:27;;;;;;;0.90;0.40;;;;;;;38.71;15.58;98913.09;4998078;28;20299;-80
2023/08/09 09:39:53;;;;;;;1.58;0.20;;;;;;;38.61;15.69;98904.25;5021826;28;20064;-80
2023/08/09 09:42:29;;;;;;;2.13;0.40;;;;;;;38.59;15.82;98912.72;5018157;28;20028;-80
2023/08/09 09:45:05;;;;;;;0.70;0.40;;;;;;;38.10;15.83;98912.09;5017892;28;20033;-80
2023/08/09 09:47:39;;;;;;;0.60;0.40;;;;;;;37.62;15.91;98913.00;5002767;28;20429;-81
2023/08/09 09:50:08;;;;;;;3.28;0.40;;;;;;;37.15;16.23;98914.59;5021704;28;20101;-80
2023/08/09 09:52:38;;;;;;;1.92;0.40;;;;;;;36.67;16.56;98909.84;5005381;28;20462;-80
2023/08/09 09:55:05;;;;;;;1.90;0.40;;;;;;;36.28;16.88;98897.13;5020737;28;20040;-80
2023/08/09 09:57:32;;;;;;;1.50;0.47;;;;;;;35.95;17.40;98888.59;5021634;28;20029;-80
2023/08/09 10:00:01;;;;;;;0.70;0.23;;;;;;;35.68;17.47;98897.94;5021147;28;20045;-80
2023/08/09 10:02:31;;;;;;;2.63;0.40;;;;;;;35.46;17.93;98900.22;5021412;28;20098;-79
2023/08/09 10:04:58;;;;;;;2.58;0.40;;;;;;;35.32;17.90;98897.28;5021512;28;20480;-80
2023/08/09 10:07:24;;;;;;;0.52;0.30;;;;;;;35.15;18.10;98887.53;5036709;28;20393;-81
2023/08/09 10:09:50;;;;;;;2.00;0.40;;;;;;;35.04;18.34;98885.09;5019618;28;20043;-80
2023/08/09 10:12:16;;;;;;;0.77;0.30;;;;;;;35.17;18.22;98889.97;5036622;28;20037;-80
2023/08/09 10:14:41;;;;;;;1.17;0.50;;;;;;;35.22;18.60;98891.84;5035819;28;20049;-80
2023/08/09 10:17:08;;;;;;;1.05;0.57;;;;;;;34.96;19.18;98889.19;5019867;28;20500;-80
2023/08/09 10:19:34;;;;;;;2.38;0.40;;;;;;;35.04;19.12;98895.97;5019653;28;20420;-81
2023/08/09 10:22:01;;;;;;;3.53;0.40;;;;;;;35.08;19.56;98887.00;5019672;28;20044;-81
2023/08/09 10:24:28;;;;;;;0.63;0.30;;;;;;;35.25;19.31;98881.28;5036017;28;20065;-80
2023/08/09 10:26:56;;;;;;;0.90;0.50;;;;;;;35.24;19.43;98882.34;5020386;28;20500;-81
2023/08/09 10:29:23;;;;;;;0.57;0.30;;;;;;;35.16;20.06;98880.19;5020913;28;20040;-80
2023/08/09 10:31:53;;;;;;;2.67;0.50;;;;;;;35.06;20.09;98878.34;5004181;28;20106;-81
2023/08/09 10:34:20;;;;;;;0.90;0.40;;;;;;;34.94;20.15;98866.97;5037064;28;20037;-85
2023/08/09 11:00:03;;;;;;;0.32;0.30;;;;;;;34.93;19.58;98854.47;5041729;28;20142;-80
2023/08/09 11:02:28;;;;;;;0.68;0.40;;;;;;;35.00;19.50;98840.63;5054032;28;20124;-79
2023/08/09 11:04:53;;;;;;;1.50;0.32;;;;;;;35.00;19.70;98854.19;5035684;28;20132;-81
2023/08/09 11:07:19;;;;;;;2.85;0.43;;;;;;;35.00;19.70;98840.63;5003320;28;20037;-81
2023/08/09 11:09:45;;;;;;;0.82;0.40;;;;;;;35.00;19.62;98830.59;5019704;28;20063;-80
2023/08/09 11:12:14;;;;;;;3.15;0.50;;;;;;;35.09;19.50;98837.09;5019460;28;20126;-80
2023/08/09 11:14:39;;;;;;;0.90;0.40;;;;;;;35.10;19.03;98832.47;5036455;28;20120;-81
2023/08/09 11:17:11;;;;;;;0.45;0.30;;;;;;;35.01;19.50;98820.56;5002844;28;20190;-80
2023/08/09 11:19:36;;;;;;;1.38;0.43;;;;;;;35.03;19.35;98829.22;5004412;28;20472;-80
2023/08/09 11:22:02;;;;;;;1.85;0.20;;;;;;;35.03;19.40;98815.66;5035446;28;20044;-81
2023/08/09 11:24:29;;;;;;;0.90;0.47;;;;;;;34.96;19.28;98818.69;5018588;28;20041;-80
2023/08/09 11:26:56;;;;;;;1.63;0.40;;;;;;;34.94;19.12;98820.88;5019873;28;20403;-81
2023/08/09 11:29:23;;;;;;;0.93;0.40;;;;;;;34.95;19.35;98822.50;5019135;28;20040;-80
2023/08/09 11:31:50;;;;;;;2.47;0.40;;;;;;;34.94;19.01;98821.66;5035835;28;20047;-80
2023/08/09 11:34:16;;;;;;;2.35;0.35;;;;;;;34.92;19.06;98820.34;5002672;28;20048;-81
2023/08/09 11:36:42;;;;;;;3.53;0.40;;;;;;;34.88;18.84;98811.13;5018852;28;20044;-80
2023/08/09 11:39:08;;;;;;;0.60;0.30;;;;;;;34.85;18.69;98814.38;5002671;28;20029;-80
2023/08/09 11:41:44;;;;;;;1.35;0.50;;;;;;;34.81;18.40;98807.88;5019174;28;20140;-81
2023/08/09 11:44:12;;;;;;;4.78;0.40;;;;;;;34.78;18.74;98806.53;5035650;28;20033;-81
2023/08/09 11:46:40;;;;;;;3.25;0.40;;;;;;;34.73;18.53;98803.81;5003402;28;20403;-81
2023/08/09 11:49:06;;;;;;;5.72;0.38;;;;;;;34.60;18.60;98800.56;5035043;28;20025;-80
2023/08/09 11:51:33;;;;;;;3.03;0.45;;;;;;;34.50;19.00;98795.16;5018939;28;20463;-81
2023/08/09 11:53:58;;;;;;;1.02;0.40;;;;;;;34.38;19.02;98805.47;5002606;28;20037;-80
2023/08/09 11:56:24;;;;;;;1.40;0.40;;;;;;;34.31;19.32;98802.22;5034777;28;20476;-81
2023/08/09 11:58:51;;;;;;;2.38;0.43;;;;;;;34.28;19.63;98808.19;5017940;28;20154;-81
2023/08/09 12:01:24;;;;;;;5.80;0.40;;;;;;;34.21;19.75;98806.53;5002250;28;20057;-81
2023/08/09 12:04:30;;;;;;;3.42;0.47;;;;;;;34.27;20.04;98798.44;5002587;28;20488;-81
2023/08/09 12:06:57;;;;;;;2.47;0.40;;;;;;;34.30;19.29;98789.75;5034437;28;20421;-81
2023/08/09 12:09:42;;;;;;;2.13;0.30;;;;;;;34.33;19.28;98783.78;5018457;28;20029;-80
2023/08/09 12:12:17;;;;;;;1.45;0.30;;;;;;;34.36;19.07;98784.06;5021028;28;20090;-79
2023/08/09 12:14:51;;;;;;;0.50;0.40;;;;;;;34.38;18.69;98784.63;5052709;28;20404;-80
2023/08/09 12:17:22;;;;;;;1.70;0.57;;;;;;;34.38;18.82;98768.34;5002079;28;20033;-81
2023/08/09 12:19:50;;;;;;;2.10;0.38;;;;;;;34.37;19.13;98774.84;5002447;28;20492;-82
2023/08/09 12:22:16;;;;;;;0.73;0.32;;;;;;;34.36;18.87;98769.69;5003566;28;20487;-80
2023/08/09 12:24:42;;;;;;;2.50;0.50;;;;;;;34.30;18.94;98773.50;5019074;28;20463;-80
2023/08/09 12:27:07;;;;;;;2.47;0.60;;;;;;;34.23;19.08;98777.28;5018171;28;20029;-81
2023/08/09 12:29:34;;;;;;;1.27;0.57;;;;;;;34.12;18.72;98764.00;5017965;28;20041;-80
2023/08/09 12:31:59;;;;;;;2.10;0.37;;;;;;;33.96;18.77;98772.13;5001619;28;20068;-80
2023/08/09 12:34:25;;;;;;;2.17;0.47;;;;;;;33.83;18.64;98759.94;5018474;28;20299;-80
2023/08/09 12:36:51;;;;;;;0.85;0.47;;;;;;;33.76;18.67;98763.97;5001620;28;20088;-80
2023/08/09 12:39:17;;;;;;;2.15;0.40;;;;;;;33.65;18.87;98761.25;5001608;28;20123;-80
2023/08/09 12:41:42;;;;;;;1.48;0.50;;;;;;;33.56;18.97;98759.31;5001641;28;20044;-81
2023/08/09 12:44:08;;;;;;;1.88;0.50;;;;;;;33.42;18.90;98764.44;5001251;28;20037;-80
2023/08/09 12:46:34;;;;;;;1.70;0.45;;;;;;;33.31;18.98;98750.06;5001685;28;20045;-80
2023/08/09 12:49:00;;;;;;;1.92;0.43;;;;;;;33.29;19.06;98744.94;5017864;28;20088;-80
2023/08/09 12:51:25;;;;;;;0.70;0.40;;;;;;;33.27;19.16;98752.50;5002196;28;20045;-79
2023/08/09 12:53:51;;;;;;;1.95;0.60;;;;;;;33.23;18.93;98748.69;5017645;28;20045;-80
2023/08/09 12:56:17;;;;;;;3.20;0.73;;;;;;;33.23;19.59;98742.47;5018205;28;20480;-81
2023/08/09 12:58:43;;;;;;;6.85;0.75;;;;;;;33.24;19.21;98747.63;5035259;28;20086;-80
2023/08/09 13:01:08;;;;;;;2.92;0.60;;;;;;;33.23;19.60;98750.59;5034265;28;20037;-81
2023/08/09 13:03:34;;;;;;;2.80;0.60;;;;;;;33.24;19.37;98744.09;5017951;28;20037;-82
2023/08/09 13:05:59;;;;;;;2.78;0.70;;;;;;;33.10;19.40;98747.25;5001235;28;20087;-80
2023/08/09 13:08:25;;;;;;;4.35;0.73;;;;;;;33.01;19.29;98746.16;5017639;28;20033;-79
2023/08/09 13:10:50;;;;;;;5.20;0.85;;;;;;;32.89;19.70;98749.06;5001755;28;20037;-81
2023/08/09 13:13:16;;;;;;;2.28;0.63;;;;;;;32.82;19.54;98749.28;5002819;28;20127;-82
2023/08/09 13:15:41;;;;;;;3.85;0.50;;;;;;;32.69;19.59;98754.34;5017759;28;20132;-79
2023/08/09 13:18:07;;;;;;;3.17;0.57;;;;;;;32.57;19.72;98747.25;5001334;28;20120;-79
2023/08/09 13:20:33;;;;;;;2.53;0.47;;;;;;;32.45;19.95;98742.03;5034174;28;20132;-79
2023/08/09 13:22:59;;;;;;;2.70;0.47;;;;;;;32.37;20.31;98749.81;5019004;28;20502;-80
2023/08/09 13:25:24;;;;;;;4.10;1.02;;;;;;;32.27;20.43;98737.06;5038166;28;20063;-81
2023/08/09 13:27:50;;;;;;;4.13;1.50;;;;;;;32.32;20.89;98741.69;5021736;28;20041;-81
2023/08/09 13:30:16;;;;;;;5.45;1.30;;;;;;;32.39;20.97;98745.78;5004837;28;20056;-76
2023/08/09 13:32:42;;;;;;;6.32;1.08;;;;;;;32.43;22.31;98736.09;5021384;28;20056;-79
2023/08/09 13:35:09;;;;;;;4.95;0.55;;;;;;;32.50;21.51;98743.97;5021601;28;20032;-79
2023/08/09 13:37:40;;;;;;;2.20;0.40;;;;;;;32.41;20.82;98740.13;5037407;28;20129;-84
2023/08/09 13:40:09;;;;;;;5.00;0.60;;;;;;;32.23;19.88;98750.25;5040950;28;20220;-82
2023/08/09 13:42:35;;;;;;;2.25;0.50;;;;;;;32.10;20.54;98738.03;5058574;28;20037;-85
2023/08/09 13:45:01;;;;;;;2.15;0.55;;;;;;;32.03;21.28;98734.69;5059136;28;20059;-76
2023/08/09 13:47:26;;;;;;;1.10;0.47;;;;;;;31.92;22.04;98746.47;5074170;28;20040;-78
2023/08/09 13:49:52;;;;;;;2.50;0.63;;;;;;;31.66;20.96;98746.25;5057166;28;20040;-77
2023/08/09 13:52:17;;;;;;;4.25;0.50;;;;;;;31.40;22.23;98753.22;5057482;28;20072;-76
2023/08/09 13:54:43;;;;;;;1.52;0.50;;;;;;;31.29;21.83;98752.28;5057036;28;20515;-75
2023/08/09 13:57:08;;;;;;;11.18;0.60;;;;;;;31.19;21.88;98747.59;5075027;28;20549;-80
2023/08/09 13:59:34;;;;;;;9.43;0.85;;;;;;;31.09;22.01;98741.25;5057451;28;20028;-79